Time;durP1;ratioP1;P1;durP2;ratioP2;P2;SDS_P1;SDS_P2;PMS_P1;PMS_P2;Temp;Humidity;BMP_temperature;BMP_pressure;BME280_temperature;BME280_humidity;BME280_pressure;Samples;Min_cycle;Max_cycle;Signal;HPM_P1;HPM_P2
2023/12/15 00:00:32;;;;;;;15.90;9.77;;;;;;;9.82;60.71;99829.84;8370319;23;20736;-79
2023/12/15 00:03:54;;;;;;;16.33;9.53;;;;;;;9.78;60.85;99844.66;8372075;23;20186;-79
2023/12/15 00:07:16;;;;;;;14.77;8.97;;;;;;;9.73;60.99;99851.56;8370260;23;20192;-79
2023/12/15 00:10:40;;;;;;;15.10;8.97;;;;;;;9.85;61.28;99847.47;8370239;23;20201;-80
2023/12/15 00:14:01;;;;;;;13.47;8.63;;;;;;;9.95;61.27;99856.19;8373924;23;20209;-79
2023/12/15 00:17:23;;;;;;;13.00;9.33;;;;;;;9.85;61.02;99867.19;8373573;23;20205;-79
2023/12/15 00:20:46;;;;;;;13.13;8.70;;;;;;;9.80;61.04;99866.88;8371570;23;20757;-79
2023/12/15 00:24:08;;;;;;;12.50;8.47;;;;;;;9.96;60.91;99871.34;8374693;23;20189;-79
2023/12/15 00:27:30;;;;;;;12.93;9.40;;;;;;;9.99;61.07;99865.63;8374529;23;20182;-78
2023/12/15 00:30:51;;;;;;;14.27;9.30;;;;;;;10.13;60.88;99876.53;8374008;23;20737;-79
2023/12/15 00:34:13;;;;;;;12.07;8.43;;;;;;;9.94;61.17;99887.72;8374595;23;20189;-79
2023/12/15 00:37:36;;;;;;;11.37;8.13;;;;;;;9.90;61.18;99882.81;8374687;23;20248;-79
2023/12/15 00:40:57;;;;;;;13.50;7.90;;;;;;;10.09;61.10;99885.97;8373058;23;20216;-78
2023/12/15 00:44:19;;;;;;;15.03;10.57;;;;;;;10.27;60.60;99891.13;8373880;23;20237;-79
2023/12/15 00:47:42;;;;;;;11.53;8.00;;;;;;;9.89;61.21;99903.56;8364229;23;20213;-78
2023/12/15 00:51:03;;;;;;;13.47;8.53;;;;;;;9.74;62.45;99901.75;8363697;23;20235;-78
2023/12/15 00:54:26;;;;;;;12.33;8.70;;;;;;;9.86;61.29;99917.34;8365691;23;20228;-78
2023/12/15 00:57:48;;;;;;;13.10;9.10;;;;;;;9.99;61.27;99927.59;8364437;23;20672;-78
2023/12/15 01:01:09;;;;;;;13.17;8.63;;;;;;;9.50;62.33;99926.06;8360402;23;20206;-81
2023/12/15 01:04:31;;;;;;;11.67;8.60;;;;;;;9.57;62.41;99932.44;8364178;23;20219;-79
2023/12/15 01:07:54;;;;;;;15.67;9.23;;;;;;;9.76;61.76;99927.50;8362488;23;20312;-79
2023/12/15 01:11:17;;;;;;;13.07;8.47;;;;;;;9.98;60.97;99934.81;8361399;23;20698;-79
2023/12/15 01:14:39;;;;;;;16.43;9.13;;;;;;;9.87;61.05;99923.59;8361337;23;20223;-79
2023/12/15 01:18:00;;;;;;;13.47;8.30;;;;;;;9.96;61.36;99939.56;8362859;23;20568;-79
2023/12/15 01:21:22;;;;;;;14.43;9.33;;;;;;;9.79;60.90;99937.06;8360006;23;20229;-81
2023/12/15 01:24:43;;;;;;;12.23;8.00;;;;;;;10.08;60.56;99953.50;8362320;23;20189;-79
2023/12/15 01:28:06;;;;;;;15.53;9.47;;;;;;;10.07;60.71;99962.59;8362942;23;20662;-80
2023/12/15 01:31:28;;;;;;;13.20;8.47;;;;;;;9.91;61.34;99974.25;8361858;23;20323;-79
2023/12/15 01:34:49;;;;;;;14.27;8.63;;;;;;;9.88;60.88;99980.00;8362158;23;20259;-79
2023/12/15 01:38:13;;;;;;;12.63;8.60;;;;;;;10.14;60.30;99961.75;8361132;23;20686;-79
2023/12/15 01:41:34;;;;;;;18.43;9.90;;;;;;;10.10;60.58;99990.03;8360547;23;20343;-78
2023/12/15 01:44:57;;;;;;;14.03;8.87;;;;;;;10.07;60.57;99994.94;8362710;23;20228;-79
2023/12/15 01:48:19;;;;;;;16.50;9.83;;;;;;;10.20;60.02;99990.69;8364256;23;20281;-79
2023/12/15 01:51:40;;;;;;;14.93;8.90;;;;;;;10.16;60.12;100007.38;8363224;23;20352;-79
2023/12/15 01:55:02;;;;;;;15.27;8.90;;;;;;;10.04;59.98;100004.22;8363255;23;20625;-79
2023/12/15 01:58:23;;;;;;;12.70;8.67;;;;;;;9.95;60.66;100002.53;8362715;23;20285;-79
2023/12/15 02:01:46;;;;;;;15.23;9.13;;;;;;;10.14;60.31;99995.91;8361159;23;20282;-79
2023/12/15 02:05:08;;;;;;;14.07;8.73;;;;;;;10.16;60.56;99994.75;8364345;23;20323;-79
2023/12/15 02:08:29;;;;;;;16.63;8.93;;;;;;;9.83;60.46;100009.28;8363553;23;20232;-79
2023/12/15 02:11:51;;;;;;;17.43;9.20;;;;;;;10.02;60.63;100024.22;8361770;23;20279;-78
2023/12/15 02:15:12;;;;;;;15.03;9.40;;;;;;;9.82;60.64;100025.63;8362197;23;20633;-77
2023/12/15 02:18:35;;;;;;;14.63;9.47;;;;;;;9.68;60.47;100027.13;8361791;23;20735;-76
2023/12/15 02:21:56;;;;;;;14.97;8.63;;;;;;;9.89;60.68;100026.59;8362627;23;20331;-77
2023/12/15 02:25:24;;;;;;;13.67;9.43;;;;;;;9.73;60.75;100014.00;8362327;23;20739;-76
2023/12/15 02:28:45;;;;;;;15.67;9.87;;;;;;;9.35;61.86;100033.56;8361078;23;20190;-77
2023/12/15 02:32:07;;;;;;;13.67;8.83;;;;;;;9.56;61.10;100025.81;8361813;23;20287;-76
2023/12/15 02:35:29;;;;;;;17.00;10.07;;;;;;;9.38;61.54;100030.53;8362408;23;20223;-78
2023/12/15 02:38:50;;;;;;;11.43;8.03;;;;;;;9.76;60.81;100034.38;8363144;23;20818;-76
2023/12/15 02:42:23;;;;;;;11.37;8.00;;;;;;;9.74;60.54;100034.53;8363656;23;20297;-76
2023/12/15 02:45:45;;;;;;;13.80;9.63;;;;;;;9.72;60.26;100050.03;8362529;23;20253;-78
2023/12/15 02:49:07;;;;;;;9.97;7.57;;;;;;;9.72;59.95;100035.72;8361353;23;20239;-77
2023/12/15 02:52:31;;;;;;;12.07;7.97;;;;;;;9.98;59.74;100061.44;8362910;23;20228;-76
2023/12/15 02:55:53;;;;;;;13.93;9.60;;;;;;;9.77;59.99;100061.16;8363056;23;20258;-78
2023/12/15 02:59:15;;;;;;;15.97;9.53;;;;;;;9.78;60.26;100065.53;8362142;23;20286;-76
2023/12/15 03:02:37;;;;;;;14.63;9.70;;;;;;;9.79;59.89;100075.28;8362342;23;20283;-78
2023/12/15 03:05:58;;;;;;;13.33;8.43;;;;;;;9.85;60.01;100071.91;8363119;23;20610;-76
2023/12/15 03:09:20;;;;;;;12.90;8.00;;;;;;;10.02;59.63;100070.88;8360784;23;20273;-77
2023/12/15 03:12:41;;;;;;;12.10;8.30;;;;;;;9.69;60.26;100079.97;8362410;23;20641;-76
2023/12/15 03:16:09;;;;;;;13.13;8.17;;;;;;;9.81;59.83;100080.50;8363205;23;20324;-76
2023/12/15 03:19:30;;;;;;;9.97;7.50;;;;;;;9.85;60.35;100092.59;8362935;23;20196;-76
2023/12/15 03:22:53;;;;;;;11.43;8.00;;;;;;;9.84;59.64;100093.63;8363228;23;20337;-78
2023/12/15 03:26:14;;;;;;;9.23;7.93;;;;;;;10.08;59.21;100102.56;8362935;23;20189;-77
2023/12/15 03:29:35;;;;;;;10.07;7.73;;;;;;;10.10;58.85;100094.31;8361474;23;20307;-78
2023/12/15 03:32:58;;;;;;;11.10;7.50;;;;;;;10.17;59.00;100106.09;8362089;23;20235;-76
2023/12/15 03:36:20;;;;;;;9.67;7.70;;;;;;;9.79;59.54;100107.59;8363569;23;20209;-78
2023/12/15 03:39:41;;;;;;;14.17;8.63;;;;;;;9.97;59.45;100110.09;8362065;23;20585;-77
2023/12/15 03:43:03;;;;;;;11.17;8.33;;;;;;;9.97;59.41;100112.78;8361001;23;20278;-76
2023/12/15 03:46:24;;;;;;;10.43;8.10;;;;;;;9.83;59.32;100114.34;8362058;23;20188;-77
2023/12/15 03:49:47;;;;;;;10.00;7.33;;;;;;;10.03;59.41;100115.69;8361395;23;20223;-76
2023/12/15 03:53:09;;;;;;;9.43;7.23;;;;;;;9.91;59.19;100129.63;8363078;23;20674;-76
2023/12/15 03:56:31;;;;;;;10.40;7.80;;;;;;;10.09;58.97;100119.59;8363252;23;20294;-77
2023/12/15 03:59:53;;;;;;;10.43;7.33;;;;;;;10.18;59.00;100122.09;8361975;23;20216;-76
2023/12/15 04:03:14;;;;;;;11.73;8.17;;;;;;;9.84;58.36;100134.88;8360805;23;20267;-79
2023/12/15 04:06:37;;;;;;;9.17;7.90;;;;;;;10.10;58.02;100119.41;8362188;23;20214;-76
2023/12/15 04:09:58;;;;;;;12.03;7.63;;;;;;;10.17;58.19;100124.97;8360947;23;20264;-79
2023/12/15 04:13:20;;;;;;;11.37;8.00;;;;;;;10.07;57.89;100126.97;8362836;23;20266;-77
2023/12/15 04:16:42;;;;;;;9.17;6.83;;;;;;;9.90;58.48;100144.97;8363414;23;20696;-77
2023/12/15 04:20:04;;;;;;;10.80;8.17;;;;;;;10.10;58.60;100148.22;8362022;23;20225;-76
2023/12/15 04:23:27;;;;;;;9.80;8.07;;;;;;;10.01;58.19;100151.88;8362909;23;20825;-76
2023/12/15 04:26:48;;;;;;;11.23;8.30;;;;;;;10.02;58.43;100161.63;8361689;23;20786;-76
2023/12/15 04:30:11;;;;;;;12.40;7.57;;;;;;;10.04;58.71;100154.28;8360442;23;20260;-76
2023/12/15 04:33:32;;;;;;;9.90;7.80;;;;;;;10.14;58.83;100155.78;8363351;23;20189;-77
2023/12/15 04:36:54;;;;;;;12.00;8.43;;;;;;;10.32;58.60;100169.06;8376085;23;20635;-76
2023/12/15 04:40:17;;;;;;;11.67;8.67;;;;;;;10.01;58.75;100176.13;8361102;23;20305;-78
2023/12/15 04:43:38;;;;;;;8.80;6.90;;;;;;;10.40;57.99;100180.69;8360728;23;20187;-76
2023/12/15 04:47:00;;;;;;;12.90;7.37;;;;;;;10.26;58.13;100175.97;8361302;23;20189;-78
2023/12/15 04:50:21;;;;;;;10.97;7.40;;;;;;;10.49;58.13;100181.50;8361394;23;20248;-77
2023/12/15 04:53:43;;;;;;;10.10;7.27;;;;;;;10.41;57.56;100179.69;8362119;23;20187;-77
2023/12/15 04:57:06;;;;;;;10.00;7.27;;;;;;;10.44;57.91;100190.13;8361303;23;20234;-76
2023/12/15 05:00:27;;;;;;;13.53;9.40;;;;;;;10.32;58.63;100186.09;8361648;23;20238;-77
2023/12/15 05:03:49;;;;;;;11.33;8.67;;;;;;;10.29;57.81;100159.47;8363000;23;20276;-77
2023/12/15 05:07:10;;;;;;;9.23;7.30;;;;;;;10.41;58.17;100186.91;8361555;23;20184;-77
2023/12/15 05:10:32;;;;;;;12.03;7.80;;;;;;;10.49;58.27;100200.38;8360332;23;20201;-77
2023/12/15 05:13:54;;;;;;;12.43;8.10;;;;;;;10.35;58.15;100193.84;8361208;23;20219;-77
2023/12/15 05:17:17;;;;;;;12.77;7.80;;;;;;;10.33;58.26;100195.84;8360550;23;20231;-78
2023/12/15 05:20:39;;;;;;;11.77;7.93;;;;;;;10.16;58.68;100201.44;8358835;23;20695;-78
2023/12/15 05:24:01;;;;;;;11.00;7.90;;;;;;;10.30;58.85;100198.06;8361279;23;20189;-77
2023/12/15 05:27:22;;;;;;;12.37;7.70;;;;;;;10.33;59.07;100216.59;8361193;23;20270;-78
2023/12/15 05:30:45;;;;;;;10.90;8.17;;;;;;;10.38;58.52;100225.00;8360252;23;20292;-77
2023/12/15 05:34:07;;;;;;;9.73;7.60;;;;;;;10.43;58.09;100228.03;8362021;23;20275;-76
2023/12/15 05:37:28;;;;;;;11.50;8.00;;;;;;;10.35;58.59;100234.28;8361962;23;20323;-78
2023/12/15 05:40:52;;;;;;;11.50;7.97;;;;;;;10.38;58.77;100249.25;8360417;23;20295;-77
2023/12/15 05:44:14;;;;;;;9.93;7.57;;;;;;;10.23;59.13;100250.97;8359388;23;20188;-77
2023/12/15 05:47:39;;;;;;;10.83;7.63;;;;;;;10.32;59.23;100258.88;8359174;23;20319;-78
2023/12/15 05:51:00;;;;;;;10.50;7.43;;;;;;;10.19;59.30;100282.81;8360205;23;20235;-77
2023/12/15 05:54:22;;;;;;;12.83;8.17;;;;;;;10.10;59.38;100289.16;8360644;23;20220;-76
2023/12/15 05:57:43;;;;;;;15.93;8.83;;;;;;;9.27;61.00;100286.50;8361697;23;20325;-77
2023/12/15 06:01:05;;;;;;;15.57;8.47;;;;;;;9.45;62.31;100299.91;8360018;23;20233;-76
2023/12/15 06:04:28;;;;;;;13.03;8.47;;;;;;;10.09;60.97;100300.97;8361511;23;20331;-77
2023/12/15 06:07:50;;;;;;;12.37;8.97;;;;;;;10.16;60.54;100306.56;8361508;23;20608;-77
2023/12/15 06:11:11;;;;;;;13.00;8.67;;;;;;;10.22;60.04;100305.88;8360415;23;20281;-78
2023/12/15 06:14:33;;;;;;;14.40;8.97;;;;;;;10.10;60.59;100309.91;8361479;23;20780;-76
2023/12/15 06:17:54;;;;;;;11.60;8.30;;;;;;;10.29;60.11;100315.84;8361160;23;20204;-77
2023/12/15 06:21:24;;;;;;;12.63;9.10;;;;;;;10.26;59.53;100318.00;8359770;23;20285;-76
2023/12/15 06:24:46;;;;;;;10.80;8.30;;;;;;;10.37;59.21;100317.69;8361523;23;20216;-76
2023/12/15 06:28:09;;;;;;;10.53;8.03;;;;;;;10.38;59.06;100313.97;8362457;23;20891;-77
2023/12/15 06:31:30;;;;;;;15.80;8.43;;;;;;;10.20;58.86;100340.22;8362153;23;20202;-76
2023/12/15 06:34:52;;;;;;;13.43;8.50;;;;;;;9.75;60.28;100354.03;8363975;23;20523;-76
2023/12/15 06:38:15;;;;;;;13.53;8.30;;;;;;;10.12;59.46;100346.47;8362786;23;20287;-79
2023/12/15 06:41:36;;;;;;;10.67;7.27;;;;;;;10.37;59.12;100340.09;8361483;23;20292;-76
2023/12/15 06:45:04;;;;;;;11.43;7.67;;;;;;;9.82;59.80;100348.84;8362784;23;20219;-78
2023/12/15 06:48:25;;;;;;;11.93;8.27;;;;;;;10.06;60.62;100354.34;8363574;23;20306;-76
2023/12/15 06:51:47;;;;;;;11.67;7.77;;;;;;;10.02;60.38;100329.56;8362552;23;20294;-76
2023/12/15 06:55:10;;;;;;;12.30;8.90;;;;;;;10.25;60.34;100359.44;8362585;23;20199;-76
2023/12/15 06:58:32;;;;;;;13.07;8.37;;;;;;;10.30;60.20;100354.41;8362586;23;20219;-78
2023/12/15 07:01:53;;;;;;;12.27;8.67;;;;;;;10.47;59.30;100366.91;8362242;23;20572;-76
2023/12/15 07:05:15;;;;;;;10.77;8.13;;;;;;;10.35;59.37;100365.53;8363762;23;20638;-76
2023/12/15 07:08:37;;;;;;;13.93;8.70;;;;;;;10.35;59.68;100382.56;8362283;23;20218;-76
2023/12/15 07:12:01;;;;;;;10.53;8.50;;;;;;;10.25;59.83;100381.88;8362889;23;20205;-77
2023/12/15 07:15:22;;;;;;;11.23;8.43;;;;;;;10.50;59.41;100386.28;8361546;23;20185;-76
2023/12/15 07:18:45;;;;;;;11.27;8.63;;;;;;;10.04;59.70;100399.50;8360904;23;20293;-76
2023/12/15 07:22:06;;;;;;;10.53;8.23;;;;;;;10.60;58.67;100405.00;8360826;23;20203;-77
2023/12/15 07:25:28;;;;;;;10.93;8.23;;;;;;;10.76;57.26;100408.59;8362458;23;20622;-76
2023/12/15 07:28:51;;;;;;;10.50;7.53;;;;;;;10.65;58.82;100408.06;8361996;23;20201;-76
2023/12/15 07:32:12;;;;;;;8.57;7.50;;;;;;;10.83;57.81;100406.91;8361142;23;20208;-79
2023/12/15 07:35:34;;;;;;;9.13;7.23;;;;;;;10.63;57.79;100419.00;8361420;23;20320;-76
2023/12/15 07:38:55;;;;;;;8.83;7.37;;;;;;;10.72;57.29;100425.25;8360892;23;20287;-77
2023/12/15 07:42:17;;;;;;;10.70;8.87;;;;;;;10.58;57.41;100393.56;8361942;23;20252;-76
2023/12/15 07:45:40;;;;;;;11.00;8.40;;;;;;;10.86;57.40;100419.22;8361772;23;20215;-76
2023/12/15 07:49:01;;;;;;;13.47;10.83;;;;;;;10.78;56.87;100432.69;8361201;23;20182;-76
2023/12/15 07:52:23;;;;;;;11.20;9.20;;;;;;;10.85;57.15;100436.41;8362950;23;20273;-76
2023/12/15 07:55:44;;;;;;;11.50;7.93;;;;;;;10.93;56.20;100437.25;8361461;23;20269;-76
2023/12/15 07:59:06;;;;;;;7.23;6.50;;;;;;;10.85;55.77;100434.56;8360634;23;20202;-76
2023/12/15 08:02:29;;;;;;;8.37;6.90;;;;;;;10.98;55.84;100445.69;8363156;23;20202;-77
2023/12/15 08:05:50;;;;;;;9.27;7.00;;;;;;;10.96;56.03;100439.63;8363691;23;20188;-75
2023/12/15 08:09:12;;;;;;;8.87;6.70;;;;;;;10.69;56.56;100431.81;8362998;23;20180;-76
2023/12/15 08:12:33;;;;;;;10.00;7.17;;;;;;;10.77;57.23;100449.88;8363393;23;20709;-76
2023/12/15 08:15:55;;;;;;;10.17;7.57;;;;;;;10.92;56.45;100456.34;8363279;23;20263;-77
2023/12/15 08:19:17;;;;;;;8.33;7.37;;;;;;;10.89;56.19;100456.66;8362237;23;20209;-77
2023/12/15 08:22:39;;;;;;;11.93;7.80;;;;;;;10.55;57.28;100443.28;8362936;23;20299;-77
2023/12/15 08:26:00;;;;;;;8.97;7.23;;;;;;;10.89;56.99;100454.81;8359592;23;20186;-78
2023/12/15 08:29:22;;;;;;;9.67;6.80;;;;;;;10.87;56.23;100473.00;8360763;23;20234;-78
2023/12/15 08:32:43;;;;;;;9.67;7.47;;;;;;;10.91;55.73;100468.97;8382682;23;20205;-78
2023/12/15 08:36:08;;;;;;;8.07;6.83;;;;;;;11.00;55.82;100480.63;8369387;23;20188;-77
2023/12/15 08:39:30;;;;;;;7.47;6.73;;;;;;;10.97;55.71;100476.41;8368487;23;20248;-78
2023/12/15 08:42:52;;;;;;;9.73;7.47;;;;;;;10.51;57.23;100495.84;8370032;23;20205;-78
2023/12/15 08:46:13;;;;;;;8.53;7.63;;;;;;;11.01;56.71;100498.50;8369856;23;20206;-78
2023/12/15 08:49:35;;;;;;;9.80;7.50;;;;;;;10.93;56.74;100493.09;8366278;23;20182;-78
2023/12/15 08:52:57;;;;;;;9.73;7.70;;;;;;;10.85;56.94;100515.50;8368247;23;20540;-79
2023/12/15 08:56:19;;;;;;;8.50;7.60;;;;;;;10.89;56.52;100483.63;8362075;23;20268;-77
2023/12/15 08:59:40;;;;;;;9.53;7.67;;;;;;;11.14;55.93;100510.50;8361262;23;20244;-78
2023/12/15 09:03:02;;;;;;;10.07;7.17;;;;;;;10.67;56.65;100527.41;8367268;23;20272;-78
2023/12/15 09:06:23;;;;;;;8.60;6.97;;;;;;;10.83;56.39;100524.78;8366819;23;20875;-78
2023/12/15 09:09:46;;;;;;;10.03;7.47;;;;;;;10.35;56.96;100478.78;8365028;23;20208;-79
2023/12/15 09:13:08;;;;;;;10.47;7.63;;;;;;;10.90;56.83;100528.50;8361632;23;20302;-77
2023/12/15 09:16:47;;;;;;;9.33;7.50;;;;;;;10.30;58.32;100524.25;8362189;23;20645;-78
2023/12/15 09:20:10;;;;;;;9.27;7.53;;;;;;;10.59;57.88;100538.19;8359322;23;20185;-77
2023/12/15 09:23:31;;;;;;;11.73;9.00;;;;;;;10.22;59.50;100529.63;8362463;23;20272;-78
2023/12/15 09:26:54;;;;;;;12.37;8.70;;;;;;;9.77;59.74;100539.75;8362392;23;20643;-77
2023/12/15 09:30:16;;;;;;;11.93;9.03;;;;;;;10.29;59.18;100549.53;8361444;23;20212;-77
2023/12/15 09:33:37;;;;;;;11.30;8.70;;;;;;;10.22;59.73;100546.63;8361771;23;20227;-78
2023/12/15 09:36:59;;;;;;;13.27;9.03;;;;;;;10.36;59.53;100546.03;8360285;23;20252;-77
2023/12/15 09:40:23;;;;;;;12.00;9.17;;;;;;;10.11;60.79;100537.97;8360949;23;20266;-77
2023/12/15 09:43:46;;;;;;;10.37;8.83;;;;;;;10.77;59.64;100557.81;8362154;23;20630;-77
2023/12/15 09:47:08;;;;;;;11.07;8.57;;;;;;;10.94;59.06;100557.72;8362448;23;20675;-77
2023/12/15 09:50:33;;;;;;;11.23;9.30;;;;;;;11.11;58.69;100554.00;8359633;23;20211;-77
2023/12/15 09:53:54;;;;;;;12.30;10.47;;;;;;;11.38;57.30;100555.56;8360271;23;20208;-77
2023/12/15 09:57:17;;;;;;;11.67;10.03;;;;;;;11.43;57.29;100539.69;8361781;23;20634;-78
2023/12/15 10:00:40;;;;;;;10.47;8.87;;;;;;;11.55;55.43;100549.16;8360610;23;20237;-78
2023/12/15 10:04:01;;;;;;;10.23;9.13;;;;;;;11.46;55.92;100547.47;8362976;23;20186;-78
2023/12/15 10:07:23;;;;;;;10.90;9.07;;;;;;;11.42;56.38;100549.69;8363339;23;20263;-78
2023/12/15 10:10:44;;;;;;;10.37;8.37;;;;;;;11.53;57.09;100562.84;8362518;23;20206;-77
2023/12/15 10:14:07;;;;;;;14.57;8.83;;;;;;;12.05;55.82;100556.06;8363430;23;20192;-77
2023/12/15 10:17:30;;;;;;;10.40;8.43;;;;;;;11.98;56.10;100557.75;8361152;23;20186;-78
2023/12/15 10:20:51;;;;;;;10.50;8.50;;;;;;;11.45;55.95;100559.31;8362311;23;20344;-78
2023/12/15 10:24:19;;;;;;;11.90;8.73;;;;;;;11.93;55.55;100562.00;8363437;23;20647;-78
2023/12/15 10:27:40;;;;;;;12.00;8.73;;;;;;;11.86;55.77;100566.41;8362966;23;20184;-78
2023/12/15 10:31:02;;;;;;;10.30;8.73;;;;;;;11.58;56.37;100538.03;8362519;23;20247;-77
2023/12/15 10:34:26;;;;;;;9.67;8.67;;;;;;;12.02;56.81;100566.38;8363284;23;20268;-78
2023/12/15 10:37:47;;;;;;;10.83;8.83;;;;;;;11.60;57.46;100565.75;8362821;23;20216;-77
2023/12/15 10:41:09;;;;;;;12.47;9.17;;;;;;;12.02;57.55;100559.13;8361989;23;20374;-79
2023/12/15 10:44:32;;;;;;;12.40;9.33;;;;;;;12.15;57.02;100561.31;8362758;23;20204;-78
2023/12/15 10:47:54;;;;;;;14.50;9.53;;;;;;;12.00;56.59;100563.00;8362783;23;20222;-78
2023/12/15 10:51:17;;;;;;;11.60;9.40;;;;;;;12.54;55.73;100573.00;8361996;23;20277;-77
2023/12/15 10:54:40;;;;;;;9.57;8.37;;;;;;;12.76;54.20;100581.19;8364532;23;20300;-78
2023/12/15 10:58:01;;;;;;;10.87;9.20;;;;;;;12.90;54.05;100583.16;8363866;23;20638;-77
2023/12/15 11:01:23;;;;;;;16.50;12.43;;;;;;;12.51;55.33;100581.47;8362281;23;20213;-78
2023/12/15 11:04:48;;;;;;;17.10;14.07;;;;;;;12.75;55.83;100560.56;8365348;23;20275;-79
2023/12/15 11:08:29;;;;;;;12.27;8.37;;;;;;;12.86;53.71;100579.13;8365896;23;20712;-80
2023/12/15 11:11:51;;;;;;;9.90;8.90;;;;;;;12.66;55.55;100585.97;8364874;23;20706;-77
2023/12/15 11:15:14;;;;;;;9.70;8.10;;;;;;;13.35;54.51;100587.84;8363289;23;20186;-76
2023/12/15 11:18:35;;;;;;;11.80;7.93;;;;;;;13.29;54.06;100583.97;8365316;23;20225;-77
2023/12/15 11:21:57;;;;;;;11.00;9.10;;;;;;;13.18;54.15;100589.81;8365694;23;20291;-77
2023/12/15 11:25:22;;;;;;;10.53;8.00;;;;;;;13.65;53.03;100576.09;8362818;23;20185;-76
2023/12/15 11:28:44;;;;;;;9.73;7.53;;;;;;;13.58;52.66;100589.53;8361856;23;20217;-76
2023/12/15 11:32:34;;;;;;;8.63;7.17;;;;;;;13.25;52.37;100587.22;8363609;23;20233;-77
2023/12/15 11:36:00;;;;;;;10.07;8.67;;;;;;;12.88;54.37;100587.91;8369891;23;20635;-76
2023/12/15 11:39:21;;;;;;;10.23;7.80;;;;;;;12.78;55.03;100573.75;8360818;23;20267;-76
2023/12/15 11:42:50;;;;;;;10.00;9.00;;;;;;;13.04;54.74;100593.25;8362895;23;20327;-78
2023/12/15 11:46:12;;;;;;;11.10;8.70;;;;;;;13.07;54.09;100587.50;8363194;23;20177;-76
2023/12/15 11:49:33;;;;;;;10.87;9.13;;;;;;;12.96;54.01;100597.88;8362219;23;20626;-76
2023/12/15 11:52:56;;;;;;;14.00;8.40;;;;;;;12.90;53.58;100587.72;8362535;23;20205;-76
2023/12/15 11:56:18;;;;;;;11.27;8.90;;;;;;;12.44;54.73;100608.38;8362962;23;20182;-76
2023/12/15 11:59:44;;;;;;;10.37;8.33;;;;;;;12.53;54.79;100595.66;8362233;23;20689;-76
2023/12/15 12:03:06;;;;;;;10.37;8.00;;;;;;;12.44;54.82;100596.69;8363179;23;20532;-76
2023/12/15 12:06:27;;;;;;;12.77;10.50;;;;;;;12.58;55.30;100596.81;8363143;23;20643;-76
2023/12/15 12:09:49;;;;;;;10.83;8.37;;;;;;;12.72;55.19;100598.81;8362499;23;20189;-77
2023/12/15 12:13:12;;;;;;;12.87;8.30;;;;;;;12.74;55.26;100588.66;8362183;23;20336;-76
2023/12/15 12:16:37;;;;;;;8.50;7.33;;;;;;;12.77;54.36;100595.56;8361776;23;20655;-76
2023/12/15 12:20:06;;;;;;;9.40;8.13;;;;;;;12.62;55.41;100600.88;8361877;23;20201;-76
2023/12/15 12:23:28;;;;;;;14.73;9.87;;;;;;;12.42;55.69;100588.78;8363281;23;20188;-76
2023/12/15 12:26:51;;;;;;;13.77;11.13;;;;;;;12.58;55.52;100591.41;8362672;23;20213;-76
2023/12/15 12:30:14;;;;;;;14.37;10.73;;;;;;;12.75;55.13;100582.22;8360666;23;20256;-76
2023/12/15 12:33:37;;;;;;;8.80;7.77;;;;;;;12.44;55.96;100592.13;8361550;23;20611;-76
2023/12/15 12:36:58;;;;;;;8.53;7.43;;;;;;;12.58;54.83;100591.41;8359365;23;20720;-77
2023/12/15 12:40:20;;;;;;;5.80;4.63;;;;;;;12.20;54.92;100585.94;8358832;23;20262;-76
2023/12/15 12:43:42;;;;;;;4.73;4.00;;;;;;;12.55;53.73;100596.31;8360336;23;20654;-76
2023/12/15 12:47:03;;;;;;;6.30;5.13;;;;;;;12.71;54.10;100586.31;8359665;23;20181;-77
2023/12/15 12:50:27;;;;;;;8.37;5.30;;;;;;;12.49;53.18;100576.22;8358440;23;20198;-76
2023/12/15 12:53:49;;;;;;;7.87;5.70;;;;;;;12.53;53.87;100596.53;8361334;23;20211;-76
2023/12/15 12:57:10;;;;;;;6.70;5.33;;;;;;;12.76;54.50;100583.88;8363063;23;20209;-77
2023/12/15 13:00:32;;;;;;;9.83;5.03;;;;;;;12.92;53.36;100593.81;8360994;23;20239;-75
2023/12/15 13:03:53;;;;;;;5.03;4.53;;;;;;;12.99;52.69;100601.06;8363269;23;20182;-77
2023/12/15 13:07:16;;;;;;;4.90;4.50;;;;;;;12.83;53.21;100605.69;8361859;23;20271;-77
2023/12/15 13:10:38;;;;;;;4.70;4.30;;;;;;;12.86;53.41;100597.25;8360729;23;20230;-77
2023/12/15 13:14:01;;;;;;;5.27;3.83;;;;;;;12.70;53.59;100600.00;8361523;23;20213;-76
2023/12/15 13:17:23;;;;;;;4.47;4.07;;;;;;;12.55;53.41;100602.59;8363105;23;20484;-77
2023/12/15 13:20:44;;;;;;;5.40;4.27;;;;;;;12.74;53.54;100601.34;8362291;23;20799;-78
2023/12/15 13:24:08;;;;;;;5.23;4.33;;;;;;;12.81;53.73;100607.75;8362343;23;20186;-77
2023/12/15 13:27:29;;;;;;;5.10;4.60;;;;;;;12.56;54.12;100612.41;8362077;23;20185;-77
2023/12/15 13:30:52;;;;;;;6.77;4.33;;;;;;;12.46;54.45;100617.16;8360404;23;20276;-77
2023/12/15 13:34:13;;;;;;;5.30;4.80;;;;;;;12.43;54.64;100606.69;8362082;23;20186;-76
2023/12/15 13:37:35;;;;;;;5.63;4.27;;;;;;;12.48;54.68;100620.56;8362768;23;20313;-77
2023/12/15 13:40:58;;;;;;;7.37;3.70;;;;;;;12.49;54.66;100618.66;8362352;23;20744;-76
2023/12/15 13:44:20;;;;;;;6.37;4.83;;;;;;;12.74;54.18;100601.34;8362872;23;20189;-77
2023/12/15 13:47:41;;;;;;;6.00;4.07;;;;;;;12.58;54.60;100615.75;8363658;23;20388;-78
2023/12/15 13:51:03;;;;;;;5.73;4.30;;;;;;;12.64;54.52;100614.22;8362182;23;20229;-75
2023/12/15 13:54:25;;;;;;;6.97;4.10;;;;;;;12.16;55.19;100626.00;8363674;23;20228;-76
2023/12/15 13:57:50;;;;;;;7.10;5.07;;;;;;;12.40;55.33;100625.13;8363857;23;20320;-76
2023/12/15 14:01:12;;;;;;;8.00;5.00;;;;;;;12.78;54.42;100632.44;8363216;23;20210;-76
2023/12/15 14:04:33;;;;;;;6.20;5.23;;;;;;;12.53;55.20;100633.53;8363337;23;20232;-78
2023/12/15 14:07:55;;;;;;;7.13;5.07;;;;;;;12.66;54.87;100641.97;8364131;23;20279;-76
2023/12/15 14:11:17;;;;;;;7.17;5.40;;;;;;;12.39;55.22;100659.44;8363266;23;20744;-78
2023/12/15 14:14:40;;;;;;;6.60;4.73;;;;;;;12.30;55.67;100665.91;8363504;23;20217;-78
2023/12/15 14:18:03;;;;;;;5.27;4.10;;;;;;;12.36;55.24;100665.22;8363828;23;20186;-79
2023/12/15 14:21:25;;;;;;;5.80;5.20;;;;;;;12.61;55.03;100674.09;8362450;23;20212;-77
2023/12/15 14:24:46;;;;;;;5.60;4.50;;;;;;;12.28;55.56;100676.03;8363582;23;20209;-77
2023/12/15 14:28:08;;;;;;;4.80;4.30;;;;;;;12.48;55.39;100671.94;8363573;23;20189;-78
2023/12/15 14:31:30;;;;;;;6.37;4.90;;;;;;;12.67;55.18;100681.53;8362900;23;20226;-77
2023/12/15 14:34:52;;;;;;;3.80;3.40;;;;;;;11.98;56.11;100695.63;8363781;23;20184;-77
2023/12/15 14:38:13;;;;;;;3.80;3.40;;;;;;;12.52;55.05;100694.09;8363770;23;20264;-77
2023/12/15 14:41:36;;;;;;;3.80;3.40;;;;;;;12.14;55.55;100694.78;8362321;23;20259;-77
2023/12/15 14:44:58;;;;;;;3.33;3.03;;;;;;;12.32;55.16;100704.44;8363839;23;20185;-77
2023/12/15 14:48:20;;;;;;;4.40;3.30;;;;;;;12.35;55.12;100716.78;8363335;23;20216;-77
2023/12/15 14:51:42;;;;;;;3.97;2.90;;;;;;;12.37;55.25;100717.44;8363553;23;20201;-77
2023/12/15 14:55:04;;;;;;;4.30;2.97;;;;;;;12.32;55.73;100707.13;8363067;23;20186;-77
2023/12/15 14:58:26;;;;;;;4.50;3.80;;;;;;;12.19;56.06;100709.50;8362776;23;20275;-77
2023/12/15 15:01:47;;;;;;;7.50;5.90;;;;;;;12.67;54.85;100716.72;8362824;23;20213;-78
2023/12/15 15:05:10;;;;;;;4.70;3.93;;;;;;;12.70;54.81;100710.97;8363738;23;20186;-77
2023/12/15 15:08:32;;;;;;;7.13;4.57;;;;;;;12.53;55.48;100725.53;8363521;23;20239;-78
2023/12/15 15:11:53;;;;;;;9.10;5.80;;;;;;;12.68;55.19;100726.56;8363382;23;20197;-79
2023/12/15 15:15:15;;;;;;;6.67;5.00;;;;;;;12.58;55.66;100723.19;8363590;23;20186;-77
2023/12/15 15:18:38;;;;;;;7.87;4.87;;;;;;;12.58;55.75;100724.00;8358859;23;20254;-78
2023/12/15 15:22:01;;;;;;;5.97;5.37;;;;;;;12.15;58.08;100734.38;8362560;23;20292;-79
2023/12/15 15:25:22;;;;;;;7.87;5.73;;;;;;;12.28;57.99;100726.59;8363361;23;20248;-77
2023/12/15 15:28:44;;;;;;;6.73;5.60;;;;;;;12.32;57.82;100731.47;8362490;23;20205;-77
2023/12/15 15:32:07;;;;;;;8.10;6.03;;;;;;;12.22;57.48;100687.53;8363492;23;20280;-77
2023/12/15 15:35:29;;;;;;;6.93;5.97;;;;;;;12.40;58.14;100733.34;8361170;23;20182;-77